Accueil
METAR-TAF:

METAR-TAF

Aéroports :

Le Caire, Égypte

Aéroport international du Caire

latitude: 30-08N, longitude: 031-24E, altitude: 64 m

Observation

Le bulletin a été fait il y a 39 minutes, à 04:00 UTC
Vent 4 kt de sud/sud-ouest
Température 12°C
Humidité 58%
Pression 1018 hPa
Visibilité: 6000 m

METAR: HECA 120400Z 20004KT 6000 NSC 12/04 Q1018 NOSIG

Heure: 06:39 (04:39 UTC)

Prévision

Le bulletin a été fait il y a 5 heures et 39 minutes, à 23:00 UTC
Prévision valable du 12 à 00 UTC au 13 à 06 UTC
Vent 10 kt de nord-est
Visibilité 10 km ou plus
Quelques nuages à une hauteur de 2500 ft
Temporairement
du 12 à 02 UTC au 12 à 06 UTC
Vent 3 kt de direction variable

TAF: HECA 112300Z 1200/1306 04010KT 9999 FEW025 TEMPO 1202/1206 VRB03KT 4000BR NSC

Observations et prévisions météorologiques de plus de 4000 aéroports (messages METAR et TAF).

Les stations disponibles sont représentées par des disques jaunes et rouges sur la carte.

Passer la souris dessus pour voir le nom de la station.

Cliquer dessus pour voir les observations et prévisions météorologiques.

Pour changer de carte: cliquez sur les boutons verts avec une croix noire pour zoomer, sur le bouton vert avec un tiret pour effectuer un zoom arrière, ou sur les flèches vertes pour les cartes adjacentes.


METAR-TAF: